Time;durP1;ratioP1;P1;durP2;ratioP2;P2;SDS_P1;SDS_P2;PMS_P1;PMS_P2;Temp;Humidity;BMP_temperature;BMP_pressure;BME280_temperature;BME280_humidity;BME280_pressure;Samples;Min_cycle;Max_cycle;Signal;HPM_P1;HPM_P2
2023/10/30 00:00:09;;;;;;;517.83;120.82;;;;;;;;;;5010795;28;20686;-54
2023/10/30 00:02:36;;;;;;;425.08;119.95;;;;;;;;;;5010570;28;20063;-54
2023/10/30 00:05:01;;;;;;;518.38;128.30;;;;;;;;;;5009102;28;20128;-54
2023/10/30 00:07:27;;;;;;;437.15;130.77;;;;;;;;;;5011447;28;20532;-53
2023/10/30 00:09:53;;;;;;;469.70;127.00;;;;;;;;;;5011305;28;20768;-53
2023/10/30 00:12:18;;;;;;;520.53;145.38;;;;;;;;;;5010430;28;20620;-53
2023/10/30 00:14:43;;;;;;;473.05;143.20;;;;;;;;;;5012801;28;20451;-54
2023/10/30 00:17:08;;;;;;;555.57;133.43;;;;;;;;;;5011438;28;20075;-55
2023/10/30 00:19:34;;;;;;;508.55;136.55;;;;;;;;;;5008664;28;20284;-52
2023/10/30 00:21:59;;;;;;;449.83;93.22;;;;;;;;;;5009907;28;20383;-52
2023/10/30 00:24:25;;;;;;;347.70;91.73;;;;;;;;;;5012854;28;20108;-52
2023/10/30 00:26:50;;;;;;;403.15;102.00;;;;;;;;;;5014128;28;20308;-54
2023/10/30 00:29:15;;;;;;;441.10;113.93;;;;;;;;;;5013174;28;20554;-52
2023/10/30 00:31:40;;;;;;;415.50;133.88;;;;;;;;;;5013495;28;20033;-52
2023/10/30 00:34:09;;;;;;;513.40;130.40;;;;;;;;;;5013535;28;20386;-51
2023/10/30 00:36:35;;;;;;;408.65;120.53;;;;;;;;;;5014929;28;20099;-52
2023/10/30 00:39:00;;;;;;;461.80;144.60;;;;;;;;;;5014101;28;20397;-52
2023/10/30 00:41:26;;;;;;;449.65;148.60;;;;;;;;;;5014417;28;20021;-52
2023/10/30 00:43:51;;;;;;;505.70;163.48;;;;;;;;;;5015310;28;20057;-52
2023/10/30 00:46:17;;;;;;;450.95;158.18;;;;;;;;;;5011099;28;20049;-54
2023/10/30 00:48:42;;;;;;;436.50;153.32;;;;;;;;;;5015525;28;20053;-53
2023/10/30 00:51:07;;;;;;;536.08;146.65;;;;;;;;;;5013224;28;20072;-53
2023/10/30 00:53:33;;;;;;;393.50;132.73;;;;;;;;;;5013994;28;20037;-53
2023/10/30 00:55:58;;;;;;;499.17;174.67;;;;;;;;;;5013640;28;20034;-53
2023/10/30 00:58:23;;;;;;;488.20;177.55;;;;;;;;;;5015108;28;20662;-53
2023/10/30 01:00:48;;;;;;;485.98;177.88;;;;;;;;;;5013708;28;20033;-53
2023/10/30 01:03:15;;;;;;;409.20;137.20;;;;;;;;;;5013270;28;20026;-52
2023/10/30 01:05:40;;;;;;;396.67;115.90;;;;;;;;;;5013300;28;20433;-52
2023/10/30 01:08:08;;;;;;;519.53;126.65;;;;;;;;;;5011959;28;20033;-52
2023/10/30 01:10:35;;;;;;;402.10;127.47;;;;;;;;;;5013846;28;20163;-52
2023/10/30 01:13:00;;;;;;;443.92;126.55;;;;;;;;;;5012995;28;20087;-52
2023/10/30 01:15:25;;;;;;;420.00;125.13;;;;;;;;;;5013699;28;20440;-53
2023/10/30 01:17:50;;;;;;;422.63;129.47;;;;;;;;;;5015456;28;20352;-52
2023/10/30 01:20:16;;;;;;;408.13;133.35;;;;;;;;;;5012683;28;20533;-52
2023/10/30 01:22:41;;;;;;;429.17;131.75;;;;;;;;;;5014686;28;20140;-52
2023/10/30 01:25:07;;;;;;;494.73;127.07;;;;;;;;;;5010642;28;20036;-55
2023/10/30 01:27:33;;;;;;;393.23;127.85;;;;;;;;;;5015268;28;20766;-52
2023/10/30 01:29:58;;;;;;;464.60;137.25;;;;;;;;;;5012872;28;20036;-52
2023/10/30 01:32:23;;;;;;;435.67;137.88;;;;;;;;;;5014296;28;20038;-52
2023/10/30 01:34:49;;;;;;;399.70;128.27;;;;;;;;;;5014895;28;20047;-53
2023/10/30 01:37:15;;;;;;;529.40;140.90;;;;;;;;;;5013715;28;20111;-52
2023/10/30 01:39:40;;;;;;;397.23;129.70;;;;;;;;;;5014071;28;20040;-52
2023/10/30 01:42:06;;;;;;;454.52;128.98;;;;;;;;;;5010891;28;20316;-53
2023/10/30 01:44:31;;;;;;;423.30;132.32;;;;;;;;;;5014367;28;20029;-52
2023/10/30 01:46:56;;;;;;;396.15;128.98;;;;;;;;;;5013677;28;20044;-52
2023/10/30 01:49:22;;;;;;;428.60;122.47;;;;;;;;;;5012189;28;20048;-53
2023/10/30 01:51:47;;;;;;;427.13;122.70;;;;;;;;;;5011901;28;20260;-52
2023/10/30 01:54:13;;;;;;;566.53;139.15;;;;;;;;;;5010500;28;20272;-53
2023/10/30 01:56:39;;;;;;;409.27;130.65;;;;;;;;;;5013651;28;20040;-52
2023/10/30 01:59:04;;;;;;;521.80;137.10;;;;;;;;;;5011974;28;20014;-52
2023/10/30 02:01:31;;;;;;;473.02;140.70;;;;;;;;;;5012131;28;20068;-52
2023/10/30 02:03:56;;;;;;;521.83;154.98;;;;;;;;;;5011564;28;20387;-52
2023/10/30 02:06:22;;;;;;;482.95;162.13;;;;;;;;;;5010129;28;20040;-52
2023/10/30 02:08:47;;;;;;;508.85;168.95;;;;;;;;;;5013337;28;20025;-52
2023/10/30 02:11:12;;;;;;;591.72;167.70;;;;;;;;;;5009819;28;20064;-52
2023/10/30 02:13:37;;;;;;;452.17;156.23;;;;;;;;;;5013079;28;20067;-52
2023/10/30 02:16:03;;;;;;;541.67;164.68;;;;;;;;;;5008830;28;20413;-52
2023/10/30 02:18:28;;;;;;;500.83;165.02;;;;;;;;;;5012389;28;20136;-52
2023/10/30 02:20:53;;;;;;;478.75;169.98;;;;;;;;;;5014650;28;20083;-53
2023/10/30 02:23:19;;;;;;;549.25;180.93;;;;;;;;;;5014041;28;21532;-52
2023/10/30 02:25:44;;;;;;;499.30;176.60;;;;;;;;;;5013504;28;20444;-52
2023/10/30 02:28:09;;;;;;;559.77;164.30;;;;;;;;;;5014389;28;20088;-52
2023/10/30 02:30:34;;;;;;;503.08;159.25;;;;;;;;;;5015449;28;20295;-52
2023/10/30 02:33:00;;;;;;;506.70;156.43;;;;;;;;;;5016572;28;20424;-52
2023/10/30 02:35:25;;;;;;;464.45;153.23;;;;;;;;;;5015965;28;20516;-52
2023/10/30 02:37:50;;;;;;;492.95;157.10;;;;;;;;;;5015633;28;20026;-52
2023/10/30 02:40:15;;;;;;;603.27;172.13;;;;;;;;;;5012707;28;20100;-53
2023/10/30 02:42:41;;;;;;;437.45;159.10;;;;;;;;;;5015882;28;20751;-52
2023/10/30 02:45:07;;;;;;;583.45;168.20;;;;;;;;;;5014270;28;20025;-53
2023/10/30 02:47:32;;;;;;;480.75;167.27;;;;;;;;;;5015955;28;20032;-52
2023/10/30 02:49:57;;;;;;;458.15;170.23;;;;;;;;;;5017498;28;20026;-52
2023/10/30 02:52:22;;;;;;;487.83;174.60;;;;;;;;;;5016023;28;20132;-53
2023/10/30 02:54:48;;;;;;;450.63;171.95;;;;;;;;;;5017290;28;20826;-53
2023/10/30 02:57:13;;;;;;;606.42;183.75;;;;;;;;;;5014839;28;20429;-53
2023/10/30 02:59:39;;;;;;;446.17;172.13;;;;;;;;;;5016470;28;20057;-53
2023/10/30 03:02:04;;;;;;;493.65;178.30;;;;;;;;;;5015753;28;20128;-52
2023/10/30 03:04:30;;;;;;;480.17;169.05;;;;;;;;;;5015670;28;20314;-52
2023/10/30 03:06:58;;;;;;;483.45;162.75;;;;;;;;;;5015997;28;20060;-52
2023/10/30 03:09:24;;;;;;;458.65;163.82;;;;;;;;;;5015793;28;20095;-52
2023/10/30 03:11:49;;;;;;;481.70;160.82;;;;;;;;;;5017137;28;20485;-53
2023/10/30 03:14:14;;;;;;;595.78;170.52;;;;;;;;;;5015053;28;20568;-52
2023/10/30 03:16:39;;;;;;;442.08;157.57;;;;;;;;;;5016464;28;20041;-52
2023/10/30 03:19:04;;;;;;;486.20;159.37;;;;;;;;;;5014614;28;20048;-52
2023/10/30 03:21:30;;;;;;;488.40;155.20;;;;;;;;;;5013891;28;20723;-52
2023/10/30 03:23:55;;;;;;;460.23;153.80;;;;;;;;;;5014916;28;20267;-52
2023/10/30 03:26:20;;;;;;;599.72;170.43;;;;;;;;;;5013609;28;20345;-53
2023/10/30 03:28:46;;;;;;;456.60;161.27;;;;;;;;;;5015244;28;20275;-53
2023/10/30 03:31:11;;;;;;;586.35;173.15;;;;;;;;;;5014067;28;20048;-53
2023/10/30 03:33:37;;;;;;;506.98;173.68;;;;;;;;;;5015180;28;20025;-53
2023/10/30 03:36:03;;;;;;;495.27;178.50;;;;;;;;;;5014647;28;20041;-52
2023/10/30 03:38:28;;;;;;;485.42;167.63;;;;;;;;;;5013622;28;20020;-52
2023/10/30 03:40:53;;;;;;;465.58;152.32;;;;;;;;;;5013881;28;20033;-53
2023/10/30 03:43:18;;;;;;;572.13;162.50;;;;;;;;;;5013480;28;20055;-51
2023/10/30 03:45:44;;;;;;;473.40;161.25;;;;;;;;;;5013383;28;20288;-52
2023/10/30 03:48:09;;;;;;;574.75;171.45;;;;;;;;;;5013259;28;20194;-52
2023/10/30 03:50:34;;;;;;;401.73;162.02;;;;;;;;;;5015822;28;20108;-51
2023/10/30 03:53:00;;;;;;;505.45;170.27;;;;;;;;;;5014763;28;20443;-52
2023/10/30 03:55:25;;;;;;;494.80;169.17;;;;;;;;;;5011304;28;20317;-53
2023/10/30 03:57:50;;;;;;;446.20;160.77;;;;;;;;;;5014845;28;20291;-53
2023/10/30 04:00:15;;;;;;;636.70;166.37;;;;;;;;;;5011474;28;20092;-53
2023/10/30 04:02:41;;;;;;;490.20;161.95;;;;;;;;;;5014113;28;20272;-53
2023/10/30 04:05:06;;;;;;;442.27;161.00;;;;;;;;;;5013020;28;20027;-52
2023/10/30 04:07:32;;;;;;;481.17;165.88;;;;;;;;;;5015739;28;20030;-52
2023/10/30 04:09:57;;;;;;;447.75;159.48;;;;;;;;;;5016730;28;20252;-52
2023/10/30 04:12:22;;;;;;;461.13;160.70;;;;;;;;;;5014198;28;20037;-52
2023/10/30 04:14:48;;;;;;;478.73;164.88;;;;;;;;;;5015572;28;20028;-52
2023/10/30 04:17:13;;;;;;;543.60;171.00;;;;;;;;;;5012342;28;20345;-52
2023/10/30 04:19:38;;;;;;;442.38;157.95;;;;;;;;;;5016117;28;20021;-52
2023/10/30 04:22:03;;;;;;;479.20;159.57;;;;;;;;;;5015354;28;20106;-51
2023/10/30 04:24:29;;;;;;;446.30;160.05;;;;;;;;;;5013839;28;20087;-51
2023/10/30 04:26:54;;;;;;;442.85;166.70;;;;;;;;;;5015303;28;20061;-52
2023/10/30 04:29:19;;;;;;;510.83;171.40;;;;;;;;;;5014759;28;20021;-52
2023/10/30 04:31:44;;;;;;;436.67;166.02;;;;;;;;;;5015200;28;21234;-52
2023/10/30 04:34:10;;;;;;;523.13;171.43;;;;;;;;;;5014395;28;20337;-52
2023/10/30 04:36:35;;;;;;;436.77;151.00;;;;;;;;;;5014102;28;20288;-52
2023/10/30 04:39:00;;;;;;;396.20;149.83;;;;;;;;;;5016354;28;20028;-52
2023/10/30 04:41:26;;;;;;;455.23;163.90;;;;;;;;;;5013141;28;20273;-52
2023/10/30 04:43:51;;;;;;;440.92;157.55;;;;;;;;;;5014450;28;20275;-51
2023/10/30 04:46:17;;;;;;;490.65;153.40;;;;;;;;;;5012358;28;20132;-52
2023/10/30 04:48:42;;;;;;;426.42;145.68;;;;;;;;;;5017106;28;20029;-52
2023/10/30 04:51:07;;;;;;;458.15;150.80;;;;;;;;;;5015313;28;20056;-51
2023/10/30 04:53:33;;;;;;;431.30;151.43;;;;;;;;;;5014088;28;20070;-52
2023/10/30 04:55:59;;;;;;;400.23;125.22;;;;;;;;;;5014692;28;20406;-52
2023/10/30 04:58:24;;;;;;;579.75;146.27;;;;;;;;;;5014451;28;20021;-51
2023/10/30 05:00:49;;;;;;;411.48;126.65;;;;;;;;;;5014627;28;20040;-51
2023/10/30 05:03:16;;;;;;;515.53;136.70;;;;;;;;;;5013772;28;20021;-52
2023/10/30 05:05:41;;;;;;;410.15;127.97;;;;;;;;;;5012826;28;20271;-52
2023/10/30 05:08:06;;;;;;;387.10;132.73;;;;;;;;;;5016669;28;20033;-51
2023/10/30 05:10:32;;;;;;;457.33;140.10;;;;;;;;;;5013132;28;20038;-52
2023/10/30 05:12:57;;;;;;;417.60;137.48;;;;;;;;;;5015262;28;20473;-52
2023/10/30 05:15:23;;;;;;;497.27;129.15;;;;;;;;;;5012834;28;20124;-53
2023/10/30 05:17:48;;;;;;;455.52;136.77;;;;;;;;;;5013128;28;20032;-52
2023/10/30 05:20:13;;;;;;;532.17;144.50;;;;;;;;;;5012165;28;20379;-53
2023/10/30 05:22:39;;;;;;;388.48;130.73;;;;;;;;;;5015434;28;20025;-52
2023/10/30 05:25:07;;;;;;;512.63;141.25;;;;;;;;;;5012829;28;20126;-53
2023/10/30 05:27:33;;;;;;;367.65;135.25;;;;;;;;;;5012831;28;20417;-52
2023/10/30 05:29:58;;;;;;;421.20;142.60;;;;;;;;;;5016207;28;20481;-52
2023/10/30 05:32:24;;;;;;;523.25;154.20;;;;;;;;;;5013280;28;20048;-53
2023/10/30 05:34:49;;;;;;;414.30;149.40;;;;;;;;;;5014251;28;20014;-52
2023/10/30 05:37:15;;;;;;;470.35;142.68;;;;;;;;;;5011611;28;20061;-53
2023/10/30 05:39:40;;;;;;;421.15;149.88;;;;;;;;;;5014881;28;20026;-52
2023/10/30 05:42:06;;;;;;;373.23;155.82;;;;;;;;;;5013629;28;20676;-53
2023/10/30 05:44:31;;;;;;;496.77;162.57;;;;;;;;;;5013627;28;20052;-52
2023/10/30 05:46:59;;;;;;;439.23;161.82;;;;;;;;;;5015041;28;20104;-53
2023/10/30 05:49:28;;;;;;;415.88;151.93;;;;;;;;;;5014524;28;20342;-53
2023/10/30 05:51:54;;;;;;;476.50;156.93;;;;;;;;;;5013291;28;20057;-53
2023/10/30 05:54:19;;;;;;;516.08;142.60;;;;;;;;;;5015328;28;20097;-53
2023/10/30 05:56:44;;;;;;;380.48;129.27;;;;;;;;;;5018358;28;20408;-53
2023/10/30 05:59:10;;;;;;;428.95;140.35;;;;;;;;;;5019976;28;20480;-52
2023/10/30 06:01:35;;;;;;;343.45;134.25;;;;;;;;;;5015790;28;20190;-54
2023/10/30 06:04:00;;;;;;;410.65;131.55;;;;;;;;;;5018339;28;20534;-53
2023/10/30 06:06:26;;;;;;;452.50;143.40;;;;;;;;;;5015831;28;20559;-53
2023/10/30 06:08:51;;;;;;;418.30;147.30;;;;;;;;;;5017328;28;20029;-52
2023/10/30 06:11:16;;;;;;;524.40;155.07;;;;;;;;;;5017614;28;20037;-53
2023/10/30 06:13:41;;;;;;;456.95;149.63;;;;;;;;;;5018900;28;20053;-52
2023/10/30 06:16:12;;;;;;;416.20;152.50;;;;;;;;;;5018792;28;20042;-52
2023/10/30 06:18:38;;;;;;;451.88;153.05;;;;;;;;;;5019231;28;20275;-53
2023/10/30 06:21:07;;;;;;;424.83;153.27;;;;;;;;;;5018187;28;20121;-52
2023/10/30 06:23:33;;;;;;;446.77;157.48;;;;;;;;;;5017192;28;21712;-53
2023/10/30 06:25:58;;;;;;;490.75;159.88;;;;;;;;;;5016029;28;20037;-52
2023/10/30 06:28:23;;;;;;;551.35;160.50;;;;;;;;;;5017599;28;20026;-52
2023/10/30 06:30:50;;;;;;;455.10;161.97;;;;;;;;;;5018445;28;20049;-52
2023/10/30 06:33:15;;;;;;;520.63;165.18;;;;;;;;;;5016259;28;21089;-52
2023/10/30 06:35:40;;;;;;;444.35;161.57;;;;;;;;;;5015863;28;20106;-52
2023/10/30 06:38:05;;;;;;;480.63;168.20;;;;;;;;;;5016006;28;20196;-52
2023/10/30 06:40:31;;;;;;;562.03;169.02;;;;;;;;;;5014666;28;20270;-52
2023/10/30 06:42:56;;;;;;;442.98;161.70;;;;;;;;;;5016089;28;20473;-52
2023/10/30 06:45:21;;;;;;;621.50;165.10;;;;;;;;;;5012577;28;20021;-52
2023/10/30 06:47:46;;;;;;;464.88;158.70;;;;;;;;;;5016811;28;20025;-53
2023/10/30 06:50:12;;;;;;;450.45;163.90;;;;;;;;;;5016794;28;20475;-53
2023/10/30 06:52:37;;;;;;;478.38;162.90;;;;;;;;;;5016434;28;20112;-52
2023/10/30 06:55:02;;;;;;;443.92;166.18;;;;;;;;;;5017385;28;20030;-53
2023/10/30 06:57:28;;;;;;;454.30;156.48;;;;;;;;;;5017777;28;20034;-52
2023/10/30 06:59:55;;;;;;;480.63;164.35;;;;;;;;;;5018498;28;20060;-52
2023/10/30 07:02:20;;;;;;;503.58;169.20;;;;;;;;;;5016731;28;20058;-52
2023/10/30 07:04:46;;;;;;;457.50;168.70;;;;;;;;;;5018011;28;20165;-53
2023/10/30 07:07:11;;;;;;;472.38;164.55;;;;;;;;;;5017291;28;20446;-53
2023/10/30 07:09:36;;;;;;;426.90;168.23;;;;;;;;;;5017933;28;20042;-53
2023/10/30 07:12:01;;;;;;;466.73;174.80;;;;;;;;;;5016924;28;20425;-52
2023/10/30 07:14:28;;;;;;;659.47;186.15;;;;;;;;;;5017216;28;20659;-53
2023/10/30 07:16:53;;;;;;;479.20;165.18;;;;;;;;;;5017968;28;20033;-52
2023/10/30 07:19:22;;;;;;;478.57;156.07;;;;;;;;;;5018026;28;20029;-53
2023/10/30 07:21:47;;;;;;;517.97;167.50;;;;;;;;;;5017826;28;20391;-53
2023/10/30 07:24:12;;;;;;;523.95;168.05;;;;;;;;;;5018968;28;20116;-54
2023/10/30 07:26:38;;;;;;;493.42;165.30;;;;;;;;;;5017787;28;20061;-53
2023/10/30 07:29:03;;;;;;;475.50;162.10;;;;;;;;;;5018529;28;20041;-54
2023/10/30 07:31:28;;;;;;;486.77;157.00;;;;;;;;;;5017959;28;20553;-54
2023/10/30 07:33:54;;;;;;;500.30;157.95;;;;;;;;;;5018276;28;20040;-54
2023/10/30 07:36:19;;;;;;;507.80;156.82;;;;;;;;;;5018832;28;20183;-53
2023/10/30 07:38:44;;;;;;;477.10;154.23;;;;;;;;;;5019962;28;20037;-54
2023/10/30 07:41:10;;;;;;;517.37;154.23;;;;;;;;;;5018124;28;20344;-54
2023/10/30 07:43:35;;;;;;;508.65;149.07;;;;;;;;;;5018868;28;21899;-54
2023/10/30 07:46:00;;;;;;;448.87;135.37;;;;;;;;;;5018620;28;20033;-54
2023/10/30 07:48:26;;;;;;;534.60;143.77;;;;;;;;;;5017571;28;20508;-54
2023/10/30 07:50:52;;;;;;;455.00;142.68;;;;;;;;;;5018771;28;20276;-53
2023/10/30 07:53:18;;;;;;;467.95;142.65;;;;;;;;;;5018053;28;20067;-55
2023/10/30 07:55:45;;;;;;;571.72;147.48;;;;;;;;;;5017426;28;20048;-54
2023/10/30 07:58:10;;;;;;;442.08;146.30;;;;;;;;;;5018176;28;20574;-53
2023/10/30 08:00:35;;;;;;;435.90;143.37;;;;;;;;;;5015744;28;20034;-53
2023/10/30 08:03:01;;;;;;;491.48;145.70;;;;;;;;;;5011599;28;20742;-55
2023/10/30 08:05:26;;;;;;;454.37;150.13;;;;;;;;;;5021122;28;20026;-54
2023/10/30 08:07:51;;;;;;;425.65;148.65;;;;;;;;;;5022994;28;20267;-54
2023/10/30 08:10:17;;;;;;;476.23;155.87;;;;;;;;;;5019176;28;20017;-53
2023/10/30 08:12:42;;;;;;;404.27;153.23;;;;;;;;;;5020708;28;20291;-53
2023/10/30 08:15:07;;;;;;;458.70;156.70;;;;;;;;;;5020160;28;20029;-53
2023/10/30 08:17:33;;;;;;;489.73;155.93;;;;;;;;;;5018549;28;20302;-53
2023/10/30 08:19:58;;;;;;;436.60;152.65;;;;;;;;;;5019873;28;20439;-54
2023/10/30 08:22:24;;;;;;;510.48;162.20;;;;;;;;;;5018216;28;20071;-53
2023/10/30 08:24:49;;;;;;;443.65;161.05;;;;;;;;;;5020346;28;20555;-53
2023/10/30 08:27:15;;;;;;;488.92;163.93;;;;;;;;;;5018957;28;20041;-53
2023/10/30 08:29:40;;;;;;;471.98;165.20;;;;;;;;;;5019867;28;20014;-54
2023/10/30 08:32:05;;;;;;;468.30;163.87;;;;;;;;;;5018345;28;20052;-52
2023/10/30 08:34:30;;;;;;;468.85;165.20;;;;;;;;;;5019635;28;20284;-53
2023/10/30 08:36:56;;;;;;;462.27;160.18;;;;;;;;;;5019747;28;20033;-53
2023/10/30 08:39:22;;;;;;;491.13;162.90;;;;;;;;;;5019288;28;20022;-53
2023/10/30 08:41:47;;;;;;;414.48;159.38;;;;;;;;;;5021282;28;20025;-53
2023/10/30 08:44:12;;;;;;;476.08;159.95;;;;;;;;;;5020997;28;20029;-54
2023/10/30 08:46:38;;;;;;;417.55;162.98;;;;;;;;;;5020154;28;20568;-53
2023/10/30 08:49:04;;;;;;;365.90;141.47;;;;;;;;;;5021745;28;20087;-53
2023/10/30 08:51:29;;;;;;;531.92;162.20;;;;;;;;;;5019451;28;20318;-54
2023/10/30 08:53:55;;;;;;;419.55;139.20;;;;;;;;;;5021277;28;20483;-53
2023/10/30 08:56:20;;;;;;;421.80;139.13;;;;;;;;;;5017991;28;20033;-53
2023/10/30 08:58:46;;;;;;;488.23;148.00;;;;;;;;;;5018487;28;20056;-53
2023/10/30 09:01:12;;;;;;;393.67;134.90;;;;;;;;;;5018839;28;20037;-53
2023/10/30 09:03:37;;;;;;;465.70;144.02;;;;;;;;;;5017374;28;20087;-53
2023/10/30 09:06:02;;;;;;;460.10;143.00;;;;;;;;;;5017839;28;20033;-53
2023/10/30 09:08:28;;;;;;;481.45;148.23;;;;;;;;;;5017731;28;20260;-53
2023/10/30 09:10:53;;;;;;;421.73;147.63;;;;;;;;;;5019232;28;20818;-54
2023/10/30 09:13:18;;;;;;;455.98;144.30;;;;;;;;;;5017676;28;20906;-53
2023/10/30 09:15:43;;;;;;;418.38;143.02;;;;;;;;;;5017106;28;20098;-53
2023/10/30 09:18:09;;;;;;;417.10;144.60;;;;;;;;;;5018263;28;20055;-53
2023/10/30 09:20:34;;;;;;;446.23;143.65;;;;;;;;;;5018611;28;20088;-54
2023/10/30 09:22:59;;;;;;;418.70;145.80;;;;;;;;;;5021322;28;20140;-53
2023/10/30 09:25:24;;;;;;;450.53;150.53;;;;;;;;;;5018770;28;20310;-53
2023/10/30 09:27:50;;;;;;;445.70;150.00;;;;;;;;;;5020611;28;20260;-53
2023/10/30 09:30:18;;;;;;;396.15;146.68;;;;;;;;;;5018680;28;20667;-54
2023/10/30 09:32:43;;;;;;;440.80;149.93;;;;;;;;;;5017985;28;20030;-53
2023/10/30 09:35:09;;;;;;;424.00;150.20;;;;;;;;;;5019940;28;20013;-54
2023/10/30 09:37:34;;;;;;;449.77;151.05;;;;;;;;;;5020447;28;20021;-53
2023/10/30 09:40:00;;;;;;;461.35;141.57;;;;;;;;;;5020211;28;20640;-53
2023/10/30 09:42:25;;;;;;;454.83;139.32;;;;;;;;;;5018632;28;20091;-53
2023/10/30 09:44:51;;;;;;;382.03;137.50;;;;;;;;;;5021060;28;20013;-54
2023/10/30 09:47:16;;;;;;;461.58;141.45;;;;;;;;;;5019052;28;20694;-53
2023/10/30 09:49:42;;;;;;;377.35;135.15;;;;;;;;;;5020067;28;20062;-53
2023/10/30 09:52:08;;;;;;;381.55;134.35;;;;;;;;;;5020796;28;20044;-53
2023/10/30 09:54:34;;;;;;;474.25;141.15;;;;;;;;;;5019520;28;21186;-53
2023/10/30 09:57:03;;;;;;;400.27;137.35;;;;;;;;;;5018999;28;20133;-54
2023/10/30 09:59:30;;;;;;;480.52;145.85;;;;;;;;;;5019227;28;20022;-54
2023/10/30 10:01:55;;;;;;;492.60;141.90;;;;;;;;;;5018793;28;20017;-54
2023/10/30 10:04:20;;;;;;;422.60;142.18;;;;;;;;;;5020191;28;20021;-53
2023/10/30 10:06:46;;;;;;;438.27;145.02;;;;;;;;;;5020167;28;20113;-53
2023/10/30 10:09:11;;;;;;;488.73;150.10;;;;;;;;;;5021537;28;20397;-52
2023/10/30 10:11:37;;;;;;;449.23;141.80;;;;;;;;;;5017634;28;20509;-53
2023/10/30 10:14:02;;;;;;;444.25;138.90;;;;;;;;;;5018219;28;20854;-52
2023/10/30 10:16:31;;;;;;;574.90;219.77;;;;;;;;;;5032976;28;20053;-53
2023/10/30 10:18:56;;;;;;;399.38;133.20;;;;;;;;;;5019267;28;20421;-54
2023/10/30 10:21:22;;;;;;;424.50;146.43;;;;;;;;;;5018957;28;20036;-54
2023/10/30 10:23:48;;;;;;;432.23;138.63;;;;;;;;;;5020453;28;20265;-53
2023/10/30 10:26:16;;;;;;;417.80;147.32;;;;;;;;;;5019060;28;20059;-53
2023/10/30 10:28:51;;;;;;;469.63;144.93;;;;;;;;;;5018200;28;20029;-53
2023/10/30 10:31:16;;;;;;;369.13;114.45;;;;;;;;;;5019307;28;20030;-54
2023/10/30 10:33:43;;;;;;;371.45;124.60;;;;;;;;;;5017533;28;20402;-53
2023/10/30 10:36:10;;;;;;;454.38;137.88;;;;;;;;;;5018220;28;20033;-54
2023/10/30 10:38:35;;;;;;;491.52;140.75;;;;;;;;;;5019295;28;20075;-54
2023/10/30 10:41:01;;;;;;;415.75;133.15;;;;;;;;;;5021473;28;20465;-55
2023/10/30 10:43:27;;;;;;;540.90;143.77;;;;;;;;;;5022629;28;20165;-54
2023/10/30 10:45:54;;;;;;;428.90;150.65;;;;;;;;;;5023563;28;20033;-54
2023/10/30 10:48:20;;;;;;;415.25;138.60;;;;;;;;;;5023769;28;20495;-54
2023/10/30 10:50:46;;;;;;;414.17;139.68;;;;;;;;;;5023022;28;20029;-53
2023/10/30 10:53:11;;;;;;;411.33;137.70;;;;;;;;;;5023977;28;20481;-54
2023/10/30 10:55:44;;;;;;;503.55;134.80;;;;;;;;;;5021119;28;20045;-54
2023/10/30 10:58:28;;;;;;;410.45;134.88;;;;;;;;;;5024104;28;20022;-54
2023/10/30 11:00:53;;;;;;;505.70;146.32;;;;;;;;;;5021794;28;20021;-54
2023/10/30 11:03:19;;;;;;;431.52;143.40;;;;;;;;;;5022024;28;20438;-53
2023/10/30 11:05:46;;;;;;;416.20;138.45;;;;;;;;;;5020768;28;20035;-54
2023/10/30 11:08:34;;;;;;;487.25;145.85;;;;;;;;;;5021980;28;20025;-54
2023/10/30 11:11:09;;;;;;;414.40;130.60;;;;;;;;;;5015080;28;20029;-55
2023/10/30 11:13:47;;;;;;;501.73;138.45;;;;;;;;;;5020630;28;20037;-54
2023/10/30 11:16:13;;;;;;;459.63;138.98;;;;;;;;;;5022005;28;20030;-54
2023/10/30 11:18:38;;;;;;;454.67;129.85;;;;;;;;;;5021651;28;20029;-54
2023/10/30 11:21:11;;;;;;;382.60;129.90;;;;;;;;;;5022121;28;20033;-54
2023/10/30 11:23:46;;;;;;;535.05;143.23;;;;;;;;;;5021291;28;20343;-54
2023/10/30 11:26:40;;;;;;;411.38;151.07;;;;;;;;;;5021981;28;20501;-53
2023/10/30 11:29:08;;;;;;;521.70;187.63;;;;;;;;;;5021072;28;20329;-54
2023/10/30 11:31:50;;;;;;;486.75;130.65;;;;;;;;;;5021281;28;20029;-53
2023/10/30 11:34:16;;;;;;;467.42;143.30;;;;;;;;;;5020986;28;20029;-53
2023/10/30 11:36:41;;;;;;;494.50;155.73;;;;;;;;;;5021298;28;20033;-54
2023/10/30 11:39:09;;;;;;;494.33;152.05;;;;;;;;;;5022107;28;20030;-53
2023/10/30 11:41:38;;;;;;;485.67;158.07;;;;;;;;;;5021254;28;20034;-54
2023/10/30 11:44:26;;;;;;;437.75;137.68;;;;;;;;;;5021286;28;20519;-53
2023/10/30 11:46:53;;;;;;;426.40;138.73;;;;;;;;;;5021769;28;20398;-54
2023/10/30 11:49:19;;;;;;;528.25;198.02;;;;;;;;;;5022745;28;20026;-53
2023/10/30 11:51:49;;;;;;;553.00;152.15;;;;;;;;;;5021564;28;20087;-53
2023/10/30 11:54:30;;;;;;;420.95;134.88;;;;;;;;;;5019009;28;20032;-54
2023/10/30 11:56:55;;;;;;;502.52;174.77;;;;;;;;;;5020658;28;20030;-54
2023/10/30 11:59:21;;;;;;;434.08;153.30;;;;;;;;;;5022345;28;20029;-53
2023/10/30 12:01:47;;;;;;;417.05;136.18;;;;;;;;;;5020942;28;20026;-54
2023/10/30 12:04:19;;;;;;;473.48;140.23;;;;;;;;;;5021692;28;20489;-54
2023/10/30 12:06:45;;;;;;;495.10;188.38;;;;;;;;;;5019531;28;20040;-53
2023/10/30 12:09:10;;;;;;;568.65;264.20;;;;;;;;;;5020325;28;20576;-54
2023/10/30 12:11:36;;;;;;;606.22;209.32;;;;;;;;;;5018059;28;20048;-54
2023/10/30 12:14:01;;;;;;;789.83;380.90;;;;;;;;;;5020961;28;20028;-53
2023/10/30 12:16:29;;;;;;;621.45;246.63;;;;;;;;;;5019643;28;20029;-53
2023/10/30 12:18:56;;;;;;;480.02;164.05;;;;;;;;;;5021557;28;20051;-53
2023/10/30 12:21:21;;;;;;;414.02;149.35;;;;;;;;;;5020775;28;20616;-54
2023/10/30 12:23:48;;;;;;;455.55;157.07;;;;;;;;;;5020037;28;20538;-54
2023/10/30 12:26:14;;;;;;;455.15;161.77;;;;;;;;;;5020755;28;20068;-54
2023/10/30 12:28:39;;;;;;;498.88;167.32;;;;;;;;;;5020203;28;20053;-53
2023/10/30 12:31:17;;;;;;;569.33;163.27;;;;;;;;;;5019025;28;20458;-54
2023/10/30 12:33:42;;;;;;;523.95;177.55;;;;;;;;;;5020233;28;20024;-53
2023/10/30 12:36:08;;;;;;;586.47;236.75;;;;;;;;;;5020691;28;20029;-54
2023/10/30 12:38:33;;;;;;;665.87;224.07;;;;;;;;;;5019866;28;20364;-54
2023/10/30 12:41:00;;;;;;;461.50;155.17;;;;;;;;;;5020745;28;20261;-53
2023/10/30 12:43:25;;;;;;;496.65;152.90;;;;;;;;;;5020310;28;20752;-54
2023/10/30 12:45:51;;;;;;;455.88;153.30;;;;;;;;;;5020003;28;20194;-53
2023/10/30 12:48:16;;;;;;;442.33;143.57;;;;;;;;;;5020697;28;20452;-52
2023/10/30 12:50:41;;;;;;;623.30;208.40;;;;;;;;;;5018996;28;20407;-54
2023/10/30 12:53:07;;;;;;;409.23;150.03;;;;;;;;;;5020409;28;20088;-54
2023/10/30 12:55:32;;;;;;;509.50;151.15;;;;;;;;;;5018116;28;20616;-53
2023/10/30 12:57:58;;;;;;;513.50;153.10;;;;;;;;;;5019156;28;20037;-53
2023/10/30 13:00:25;;;;;;;458.57;153.13;;;;;;;;;;5019416;28;20260;-53
2023/10/30 13:02:50;;;;;;;440.27;153.95;;;;;;;;;;5018458;28;20263;-54
2023/10/30 13:05:15;;;;;;;502.03;162.53;;;;;;;;;;5019169;28;20021;-53
2023/10/30 13:07:41;;;;;;;492.33;157.48;;;;;;;;;;5020707;28;20037;-54
2023/10/30 13:10:06;;;;;;;461.38;161.57;;;;;;;;;;5019842;28;20507;-53
2023/10/30 13:12:32;;;;;;;524.85;168.68;;;;;;;;;;5017826;28;20038;-54
2023/10/30 13:14:57;;;;;;;463.63;157.52;;;;;;;;;;5019494;28;20026;-54
2023/10/30 13:17:23;;;;;;;481.85;156.90;;;;;;;;;;5019006;28;20040;-54
2023/10/30 13:19:48;;;;;;;474.38;159.90;;;;;;;;;;5019215;28;21442;-53
2023/10/30 13:22:14;;;;;;;445.60;156.13;;;;;;;;;;5017856;28;20069;-54
2023/10/30 13:24:39;;;;;;;526.53;170.30;;;;;;;;;;5019122;28;20871;-53
2023/10/30 13:27:05;;;;;;;497.55;167.57;;;;;;;;;;5017583;28;20048;-54
2023/10/30 13:29:31;;;;;;;447.58;155.98;;;;;;;;;;5018527;28;20033;-53
2023/10/30 13:31:57;;;;;;;540.72;173.18;;;;;;;;;;5019208;28;20120;-53
2023/10/30 13:34:22;;;;;;;533.75;172.65;;;;;;;;;;5018725;28;20136;-53
2023/10/30 13:36:47;;;;;;;533.03;165.27;;;;;;;;;;5018611;28;20033;-53
2023/10/30 13:39:15;;;;;;;512.00;172.97;;;;;;;;;;5018811;28;20045;-53
2023/10/30 13:41:40;;;;;;;525.10;162.55;;;;;;;;;;5017928;28;20803;-54
2023/10/30 13:44:06;;;;;;;457.20;150.85;;;;;;;;;;5019017;28;20187;-53